createdAt,value
2023-04-24T00:00:21.882Z,9.71
2023-04-24T00:02:50.046Z,9.60
2023-04-24T00:05:18.852Z,9.51
2023-04-24T00:07:47.001Z,9.50
2023-04-24T00:10:14.899Z,9.49
2023-04-24T00:12:43.000Z,9.45
2023-04-24T00:15:12.713Z,9.54
2023-04-24T00:17:40.766Z,9.53
2023-04-24T00:20:09.290Z,9.63
2023-04-24T00:22:37.618Z,9.65
2023-04-24T00:25:06.880Z,9.68
2023-04-24T00:27:36.301Z,9.63
2023-04-24T00:30:05.488Z,9.56
2023-04-24T00:32:33.435Z,9.53
2023-04-24T00:35:01.705Z,9.52
2023-04-24T00:37:29.956Z,9.48
2023-04-24T00:39:58.358Z,9.46
2023-04-24T00:42:26.458Z,9.50
2023-04-24T00:44:54.966Z,9.44
2023-04-24T00:47:24.990Z,9.36
2023-04-24T00:49:53.312Z,9.24
2023-04-24T00:52:21.870Z,9.18
2023-04-24T00:54:49.753Z,9.14
2023-04-24T00:57:18.628Z,9.09
2023-04-24T00:59:47.563Z,9.04
2023-04-24T01:02:16.851Z,8.99
2023-04-24T01:04:45.117Z,8.93
2023-04-24T01:07:14.931Z,8.87
2023-04-24T01:09:43.439Z,8.84
2023-04-24T01:12:11.606Z,8.77
2023-04-24T01:19:32.105Z,8.61
2023-04-24T01:22:02.985Z,8.48
2023-04-24T01:24:31.133Z,8.46
2023-04-24T01:27:00.425Z,8.42
2023-04-24T01:29:28.478Z,8.33
2023-04-24T01:31:56.975Z,8.36
2023-04-24T01:34:25.202Z,8.49
2023-04-24T01:36:53.470Z,8.57
2023-04-24T01:39:26.730Z,8.54
2023-04-24T01:41:57.008Z,8.59
2023-04-24T01:44:25.238Z,8.63
2023-04-24T01:46:55.350Z,8.61
2023-04-24T01:49:24.149Z,8.56
2023-04-24T01:51:52.499Z,8.55
2023-04-24T01:54:20.998Z,8.63
2023-04-24T01:56:49.596Z,8.61
2023-04-24T01:59:19.630Z,8.55
2023-04-24T02:01:47.662Z,8.50
2023-04-24T02:04:16.526Z,8.47
2023-04-24T02:06:44.606Z,8.47
2023-04-24T02:09:12.591Z,8.44
2023-04-24T02:11:40.737Z,8.38
2023-04-24T02:14:08.700Z,8.30
2023-04-24T02:17:08.110Z,8.25
2023-04-24T02:19:38.562Z,8.22
2023-04-24T02:22:06.511Z,8.21
2023-04-24T02:24:36.123Z,8.16
2023-04-24T02:27:04.601Z,8.09
2023-04-24T02:29:32.811Z,8.02
2023-04-24T02:32:01.132Z,8.01
2023-04-24T02:34:29.155Z,8.04
2023-04-24T02:36:57.028Z,8.06
2023-04-24T02:39:25.212Z,8.04
2023-04-24T02:41:54.431Z,8.00
2023-04-24T02:44:23.638Z,7.99
2023-04-24T02:46:52.242Z,8.06
2023-04-24T02:49:20.326Z,8.00
2023-04-24T02:51:48.446Z,7.99
2023-04-24T02:54:16.631Z,7.99
2023-04-24T02:56:44.742Z,7.97
2023-04-24T02:59:12.914Z,7.96
2023-04-24T03:01:41.137Z,7.98
2023-04-24T03:04:09.676Z,8.01
2023-04-24T03:06:37.936Z,7.99
2023-04-24T03:09:06.425Z,8.02
2023-04-24T03:11:34.485Z,8.03
2023-04-24T03:14:02.451Z,8.01
2023-04-24T03:16:30.747Z,8.05
2023-04-24T03:18:58.947Z,8.02
2023-04-24T03:21:31.880Z,8.04
2023-04-24T03:24:00.901Z,8.09
2023-04-24T03:26:28.945Z,8.11
2023-04-24T03:29:20.468Z,8.14
2023-04-24T03:31:48.833Z,8.20
2023-04-24T03:34:18.012Z,8.21
2023-04-24T03:36:48.690Z,8.23
2023-04-24T03:39:16.868Z,8.24
2023-04-24T03:41:52.796Z,8.21
2023-04-24T03:44:25.666Z,8.19
2023-04-24T03:46:53.882Z,8.19
2023-04-24T03:49:24.025Z,8.17
2023-04-24T03:51:53.333Z,8.16
2023-04-24T03:54:27.755Z,8.13
2023-04-24T03:56:55.955Z,8.08
2023-04-24T03:59:25.784Z,8.06
2023-04-24T04:02:08.909Z,8.08
2023-04-24T04:04:37.174Z,8.10
2023-04-24T04:07:06.393Z,8.09
2023-04-24T04:09:35.133Z,8.16
2023-04-24T04:12:03.589Z,8.19
2023-04-24T04:14:34.005Z,8.22
2023-04-24T04:17:02.202Z,8.27
2023-04-24T04:19:30.659Z,8.31
2023-04-24T04:21:59.053Z,8.32
2023-04-24T04:24:42.576Z,8.35
2023-04-24T04:27:12.116Z,8.38
2023-04-24T04:30:05.833Z,8.43
2023-04-24T04:32:42.659Z,8.57
2023-04-24T04:35:11.458Z,8.62
2023-04-24T04:37:39.781Z,8.72
2023-04-24T04:40:26.369Z,8.90
2023-04-24T04:42:59.949Z,9.12
2023-04-24T04:45:33.819Z,9.30
2023-04-24T04:48:20.648Z,9.30
2023-04-24T04:50:49.038Z,9.51
2023-04-24T04:53:19.185Z,9.71
2023-04-24T04:55:48.563Z,10.06
2023-04-24T04:58:18.433Z,9.99
2023-04-24T05:00:47.980Z,10.19
2023-04-24T05:03:28.382Z,10.62
2023-04-24T05:06:03.237Z,10.85
2023-04-24T05:08:34.792Z,10.95
2023-04-24T05:11:04.389Z,11.30
2023-04-24T05:13:40.359Z,11.50
2023-04-24T05:16:20.884Z,11.66
2023-04-24T05:18:50.724Z,12.08
2023-04-24T05:21:23.402Z,12.34
2023-04-24T05:23:53.579Z,12.26
2023-04-24T05:26:41.824Z,12.42
2023-04-24T05:29:11.130Z,12.60
2023-04-24T05:31:39.045Z,12.88
2023-04-24T05:34:07.760Z,13.04
2023-04-24T05:36:40.627Z,13.13
2023-04-24T05:39:09.292Z,13.04
2023-04-24T05:41:37.596Z,13.27
2023-04-24T05:44:06.732Z,13.28
2023-04-24T05:46:35.141Z,13.38
2023-04-24T05:49:03.973Z,13.53
2023-04-24T05:51:33.978Z,13.23
2023-04-24T05:54:04.349Z,13.39
2023-04-24T05:56:32.838Z,13.63
2023-04-24T05:59:03.276Z,13.73
2023-04-24T06:01:32.821Z,13.69
2023-04-24T06:04:10.116Z,13.85
2023-04-24T06:06:38.596Z,14.16
2023-04-24T06:09:06.978Z,14.30
2023-04-24T06:11:36.126Z,14.16
2023-04-24T06:14:05.662Z,14.34
2023-04-24T06:16:40.266Z,14.10
2023-04-24T06:19:19.546Z,14.37
2023-04-24T06:21:48.953Z,14.54
2023-04-24T06:24:17.737Z,14.60
2023-04-24T06:26:46.309Z,14.59
2023-04-24T06:29:14.418Z,14.63
2023-04-24T06:31:42.604Z,14.72
2023-04-24T06:34:12.253Z,15.27
2023-04-24T06:36:40.489Z,15.07
2023-04-24T06:39:08.503Z,15.61
2023-04-24T06:41:36.888Z,15.54
2023-04-24T06:44:05.306Z,15.59
2023-04-24T06:46:33.536Z,15.77
2023-04-24T06:49:02.408Z,15.75
2023-04-24T06:51:30.631Z,16.10
2023-04-24T06:53:58.565Z,16.44
2023-04-24T06:56:27.910Z,16.49
2023-04-24T06:58:56.517Z,16.88
2023-04-24T07:01:24.653Z,16.81
2023-04-24T07:03:53.598Z,16.88
2023-04-24T07:06:23.840Z,16.96
2023-04-24T07:08:51.848Z,17.03
2023-04-24T07:11:20.044Z,17.47
2023-04-24T07:13:48.869Z,17.53
2023-04-24T07:16:17.187Z,17.55
2023-04-24T07:18:45.711Z,17.50
2023-04-24T07:21:14.269Z,17.92
2023-04-24T07:23:42.574Z,17.92
2023-04-24T07:26:11.311Z,17.63
2023-04-24T07:28:39.285Z,17.66
2023-04-24T07:31:08.252Z,18.06
2023-04-24T07:33:37.608Z,18.57
2023-04-24T07:36:06.279Z,18.67
2023-04-24T07:38:34.295Z,18.56
2023-04-24T07:41:02.570Z,18.58
2023-04-24T07:43:30.969Z,18.68
2023-04-24T07:45:59.006Z,18.40
2023-04-24T07:48:28.855Z,18.93
2023-04-24T07:50:57.123Z,19.06
2023-04-24T07:53:25.270Z,18.90
2023-04-24T07:55:53.499Z,18.94
2023-04-24T07:58:21.983Z,19.27
2023-04-24T08:00:50.040Z,19.13
2023-04-24T08:03:20.907Z,19.04
2023-04-24T08:05:49.256Z,19.15
2023-04-24T08:08:17.266Z,19.43
2023-04-24T08:10:45.588Z,19.36
2023-04-24T08:13:13.718Z,19.72
2023-04-24T08:15:41.756Z,19.72
2023-04-24T08:18:10.258Z,19.78
2023-04-24T08:20:38.487Z,19.75
2023-04-24T08:23:06.488Z,19.88
2023-04-24T08:25:36.568Z,19.77
2023-04-24T08:28:10.139Z,20.30
2023-04-24T08:30:39.704Z,20.26
2023-04-24T08:33:08.334Z,19.97
2023-04-24T08:35:36.751Z,19.87
2023-04-24T08:38:05.175Z,19.85
2023-04-24T08:40:36.124Z,20.33
2023-04-24T08:43:05.195Z,20.44
2023-04-24T08:45:34.879Z,19.78
2023-04-24T08:48:03.727Z,20.29
2023-04-24T08:50:32.908Z,20.63
2023-04-24T08:53:04.449Z,21.08
2023-04-24T08:55:34.751Z,20.73
2023-04-24T08:58:04.124Z,20.82
2023-04-24T09:00:33.048Z,20.72
2023-04-24T09:03:03.764Z,21.09
2023-04-24T09:05:32.605Z,21.03
2023-04-24T09:08:03.143Z,21.46
2023-04-24T09:10:31.762Z,21.12
2023-04-24T09:13:04.223Z,21.44
2023-04-24T09:15:32.991Z,21.37
2023-04-24T09:18:01.232Z,21.79
2023-04-24T09:20:29.803Z,22.20
2023-04-24T09:23:01.135Z,22.09
2023-04-24T09:25:39.180Z,21.78
2023-04-24T09:28:07.722Z,22.03
2023-04-24T09:30:35.786Z,21.76
2023-04-24T09:33:17.398Z,21.87
2023-04-24T09:35:53.060Z,21.41
2023-04-24T09:38:32.432Z,21.78
2023-04-24T09:41:08.572Z,22.06
2023-04-24T09:43:37.095Z,22.21
2023-04-24T09:46:11.276Z,21.83
2023-04-24T09:48:39.613Z,21.89
2023-04-24T09:51:11.567Z,22.15
2023-04-24T09:53:41.306Z,22.22
2023-04-24T09:56:14.156Z,22.75
2023-04-24T09:58:42.769Z,22.20
2023-04-24T10:01:10.902Z,22.10
2023-04-24T10:03:43.238Z,22.55
2023-04-24T10:06:14.433Z,22.43
2023-04-24T10:08:42.517Z,22.41
2023-04-24T10:11:12.235Z,22.55
2023-04-24T10:13:41.532Z,22.30
2023-04-24T10:16:10.876Z,22.44
2023-04-24T10:18:40.243Z,23.10
2023-04-24T10:21:08.427Z,22.65
2023-04-24T10:23:37.257Z,22.84
2023-04-24T10:26:05.283Z,23.43
2023-04-24T10:28:35.350Z,23.16
2023-04-24T10:31:04.679Z,22.88
2023-04-24T10:33:33.455Z,22.58
2023-04-24T10:36:02.465Z,22.70
2023-04-24T10:38:32.299Z,22.57
2023-04-24T10:41:18.396Z,22.57
2023-04-24T10:43:49.983Z,22.43
2023-04-24T10:46:21.308Z,22.65
2023-04-24T10:48:59.417Z,22.78
2023-04-24T10:51:46.581Z,23.21
2023-04-24T10:54:35.870Z,23.49
2023-04-24T10:57:25.939Z,23.11
2023-04-24T11:00:21.916Z,23.17
2023-04-24T11:02:52.100Z,23.29
2023-04-24T11:05:21.986Z,23.45
2023-04-24T11:08:30.407Z,23.22
2023-04-24T11:10:59.657Z,22.99
2023-04-24T11:13:56.083Z,23.51
2023-04-24T11:16:31.605Z,23.49
2023-04-24T11:19:12.380Z,23.20
2023-04-24T11:21:46.138Z,23.68
2023-04-24T11:24:27.362Z,23.84
2023-04-24T11:26:58.620Z,24.05
2023-04-24T11:29:56.457Z,23.65
2023-04-24T11:32:28.678Z,23.72
2023-04-24T11:35:09.791Z,23.53
2023-04-24T11:37:40.797Z,22.71
2023-04-24T11:40:13.346Z,23.45
2023-04-24T11:42:45.241Z,23.89
2023-04-24T11:45:16.942Z,23.74
2023-04-24T11:47:46.503Z,22.96
2023-04-24T11:50:17.950Z,23.49
2023-04-24T11:52:49.154Z,24.19
2023-04-24T11:55:17.349Z,24.19
2023-04-24T11:57:54.217Z,24.62
2023-04-24T12:00:32.490Z,24.68
2023-04-24T12:03:10.174Z,24.67
2023-04-24T12:05:40.392Z,25.06
2023-04-24T12:08:08.647Z,24.01
2023-04-24T12:10:37.521Z,22.88
2023-04-24T12:13:06.559Z,23.21
2023-04-24T12:15:34.621Z,23.63
2023-04-24T12:18:03.181Z,23.62
2023-04-24T12:20:33.401Z,23.67
2023-04-24T12:23:02.890Z,23.80
2023-04-24T12:25:33.799Z,23.79
2023-04-24T12:28:04.691Z,23.68
2023-04-24T12:30:50.167Z,23.38
2023-04-24T12:33:22.575Z,23.72
2023-04-24T12:35:57.399Z,24.13
2023-04-24T12:38:28.116Z,24.40
2023-04-24T12:41:10.812Z,24.56
2023-04-24T12:43:39.301Z,24.34
2023-04-24T12:46:07.494Z,24.34
2023-04-24T12:48:35.921Z,23.62
2023-04-24T12:51:04.179Z,23.35
2023-04-24T12:53:32.436Z,23.15
2023-04-24T12:56:00.774Z,23.24
2023-04-24T12:58:28.835Z,23.99
2023-04-24T13:00:57.187Z,24.38
2023-04-24T13:03:25.930Z,24.67
2023-04-24T13:05:54.394Z,24.68
2023-04-24T13:08:22.265Z,24.52
2023-04-24T13:10:50.955Z,24.51
2023-04-24T13:13:21.271Z,24.87
2023-04-24T13:15:49.291Z,25.16
2023-04-24T13:18:17.416Z,24.80
2023-04-24T13:20:46.877Z,25.59
2023-04-24T13:23:15.886Z,25.23
2023-04-24T13:25:44.396Z,25.67
2023-04-24T13:28:12.522Z,24.91
2023-04-24T13:30:41.123Z,24.78
2023-04-24T13:33:09.550Z,24.76
2023-04-24T13:35:37.615Z,24.48
2023-04-24T13:38:07.706Z,23.91
2023-04-24T13:40:36.763Z,24.17
2023-04-24T13:43:04.856Z,24.38
2023-04-24T13:45:33.037Z,24.41
2023-04-24T13:48:02.917Z,24.62
2023-04-24T13:50:31.475Z,24.00
2023-04-24T13:53:02.810Z,23.91
2023-04-24T13:55:32.548Z,24.16
2023-04-24T13:58:00.745Z,24.50
2023-04-24T14:00:29.973Z,24.05
2023-04-24T14:02:58.362Z,23.35
2023-04-24T14:05:26.684Z,23.67
2023-04-24T14:07:55.409Z,24.07
2023-04-24T14:10:23.989Z,24.17
2023-04-24T14:12:52.869Z,24.10
2023-04-24T14:15:21.427Z,23.74
2023-04-24T14:17:51.063Z,23.92
2023-04-24T14:20:19.694Z,24.08
2023-04-24T14:22:47.984Z,24.59
2023-04-24T14:25:16.690Z,24.84
2023-04-24T14:27:45.296Z,24.75
2023-04-24T14:30:15.103Z,24.20
2023-04-24T14:32:43.389Z,24.58
2023-04-24T14:35:11.743Z,24.45
2023-04-24T14:37:42.343Z,24.35
2023-04-24T14:40:29.726Z,24.34
2023-04-24T14:43:00.027Z,24.38
2023-04-24T14:45:28.583Z,23.93
2023-04-24T14:47:57.657Z,24.11
2023-04-24T14:50:29.201Z,24.23
2023-04-24T14:53:03.063Z,23.78
2023-04-24T14:55:32.144Z,23.90
2023-04-24T14:58:00.418Z,23.51
2023-04-24T15:00:28.686Z,23.83
2023-04-24T15:02:57.878Z,22.95
2023-04-24T15:05:26.551Z,22.43
2023-04-24T15:07:55.693Z,21.88
2023-04-24T15:10:24.917Z,21.86
2023-04-24T15:12:53.217Z,21.92
2023-04-24T15:15:21.302Z,22.05
2023-04-24T15:17:50.380Z,22.19
2023-04-24T15:20:19.346Z,22.34
2023-04-24T15:22:48.593Z,22.23
2023-04-24T15:25:16.727Z,22.36
2023-04-24T15:27:46.476Z,22.34
2023-04-24T15:30:15.736Z,22.52
2023-04-24T15:32:43.769Z,22.18
2023-04-24T15:37:40.731Z,21.79
2023-04-24T15:40:10.064Z,22.09
2023-04-24T15:42:38.133Z,22.27
2023-04-24T15:45:06.946Z,22.10
2023-04-24T15:47:35.206Z,21.91
2023-04-24T15:50:05.110Z,21.43
2023-04-24T15:52:33.526Z,21.22
2023-04-24T15:55:01.477Z,21.34
2023-04-24T15:57:30.068Z,21.62
2023-04-24T15:59:58.415Z,21.47
2023-04-24T16:02:27.310Z,21.22
2023-04-24T16:04:55.598Z,21.33
2023-04-24T16:07:24.362Z,21.35
2023-04-24T16:09:52.576Z,21.40
2023-04-24T16:12:21.922Z,21.63
2023-04-24T16:14:49.979Z,21.65
2023-04-24T16:17:18.567Z,21.39
2023-04-24T16:19:46.956Z,21.31
2023-04-24T16:22:15.063Z,20.80
2023-04-24T16:24:43.971Z,20.57
2023-04-24T16:27:12.176Z,20.18
2023-04-24T16:29:40.266Z,19.97
2023-04-24T16:32:09.440Z,19.75
2023-04-24T16:34:37.812Z,19.53
2023-04-24T16:37:07.037Z,19.26
2023-04-24T16:39:35.963Z,19.03
2023-04-24T16:42:04.507Z,18.84
2023-04-24T16:44:32.650Z,18.75
2023-04-24T16:47:00.882Z,18.64
2023-04-24T16:49:31.211Z,18.55
2023-04-24T16:52:00.846Z,18.44
2023-04-24T16:54:30.626Z,18.36
2023-04-24T16:56:58.716Z,18.27
2023-04-24T16:59:27.293Z,18.15
2023-04-24T17:01:55.860Z,18.10
2023-04-24T17:04:23.945Z,17.98
2023-04-24T17:06:52.293Z,17.76
2023-04-24T17:09:21.043Z,17.45
2023-04-24T17:11:49.356Z,17.33
2023-04-24T17:14:17.821Z,17.22
2023-04-24T17:16:46.286Z,17.03
2023-04-24T17:19:15.516Z,16.96
2023-04-24T17:21:43.809Z,16.81
2023-04-24T17:24:12.420Z,16.69
2023-04-24T17:26:40.766Z,16.52
2023-04-24T17:29:09.600Z,16.32
2023-04-24T17:31:38.003Z,16.22
2023-04-24T17:34:07.576Z,16.18
2023-04-24T17:36:36.221Z,16.10
2023-04-24T17:39:04.974Z,16.00
2023-04-24T17:41:34.380Z,15.79
2023-04-24T17:44:02.810Z,15.59
2023-04-24T17:46:31.436Z,15.61
2023-04-24T17:48:59.730Z,15.61
2023-04-24T17:51:28.254Z,15.63
2023-04-24T17:53:59.211Z,15.55
2023-04-24T17:56:27.413Z,15.61
2023-04-24T17:58:57.155Z,15.45
2023-04-24T18:01:29.159Z,15.36
2023-04-24T18:03:57.841Z,15.43
2023-04-24T18:06:26.840Z,15.54
2023-04-24T18:08:54.816Z,15.54
2023-04-24T18:11:23.329Z,15.47
2023-04-24T18:13:51.644Z,15.49
2023-04-24T18:16:19.968Z,15.31
2023-04-24T18:18:48.324Z,15.14
2023-04-24T18:21:17.435Z,15.26
2023-04-24T18:23:46.338Z,15.38
2023-04-24T18:26:19.083Z,15.48
2023-04-24T18:28:48.030Z,15.81
2023-04-24T18:31:16.355Z,15.90
2023-04-24T18:33:44.750Z,15.93
2023-04-24T18:36:12.890Z,15.86
2023-04-24T18:38:40.935Z,15.79
2023-04-24T18:41:09.089Z,15.75
2023-04-24T18:43:37.078Z,15.77
2023-04-24T18:46:05.354Z,15.77
2023-04-24T18:48:33.616Z,15.64
2023-04-24T18:51:01.894Z,15.60
2023-04-24T18:53:31.025Z,15.56
2023-04-24T18:55:59.358Z,15.57
2023-04-24T18:58:27.892Z,15.63
2023-04-24T19:00:56.463Z,15.66
2023-04-24T19:03:26.461Z,15.46
2023-04-24T19:05:54.509Z,15.27
2023-04-24T19:08:23.091Z,15.23
2023-04-24T19:10:52.186Z,15.19
2023-04-24T19:13:20.504Z,15.23
2023-04-24T19:15:48.876Z,15.16
2023-04-24T19:18:18.241Z,15.25
2023-04-24T19:20:46.406Z,15.29
2023-04-24T19:23:14.953Z,15.42
2023-04-24T19:25:43.338Z,15.30
2023-04-24T19:28:11.679Z,15.14
2023-04-24T19:30:40.791Z,14.99
2023-04-24T19:33:10.477Z,14.99
2023-04-24T19:35:39.381Z,14.95
2023-04-24T19:38:07.666Z,14.84
2023-04-24T19:40:36.077Z,14.80
2023-04-24T19:43:04.293Z,14.76
2023-04-24T19:45:32.729Z,14.64
2023-04-24T19:48:01.581Z,14.53
2023-04-24T19:50:31.404Z,14.49
2023-04-24T19:52:59.570Z,14.37
2023-04-24T19:55:27.899Z,14.42
2023-04-24T19:57:56.493Z,14.26
2023-04-24T20:00:25.030Z,14.16
2023-04-24T20:02:54.328Z,14.20
2023-04-24T20:05:22.761Z,14.08
2023-04-24T20:07:51.826Z,13.77
2023-04-24T20:10:19.999Z,13.62
2023-04-24T20:12:48.181Z,13.65
2023-04-24T20:15:16.797Z,13.68
2023-04-24T20:17:46.112Z,13.69
2023-04-24T20:20:14.368Z,13.64
2023-04-24T20:22:42.655Z,13.64
2023-04-24T20:25:13.595Z,13.67
2023-04-24T20:27:42.114Z,13.66
2023-04-24T20:30:13.281Z,13.65
2023-04-24T20:32:45.685Z,13.67
2023-04-24T20:35:13.994Z,13.54
2023-04-24T20:37:42.523Z,13.40
2023-04-24T20:40:12.241Z,13.37
2023-04-24T20:42:40.836Z,13.30
2023-04-24T20:45:10.453Z,13.16
2023-04-24T20:47:38.987Z,13.06
2023-04-24T20:50:08.542Z,12.84
2023-04-24T20:52:36.819Z,12.76
2023-04-24T20:55:05.771Z,12.86
2023-04-24T20:57:34.098Z,12.93
2023-04-24T21:00:04.294Z,12.88
2023-04-24T21:02:32.634Z,12.83
2023-04-24T21:05:00.934Z,12.91
2023-04-24T21:07:28.866Z,13.19
2023-04-24T21:09:57.247Z,13.37
2023-04-24T21:12:25.402Z,13.53
2023-04-24T21:14:53.671Z,13.67
2023-04-24T21:17:22.026Z,13.69
2023-04-24T21:19:50.487Z,13.74
2023-04-24T21:22:19.115Z,13.72
2023-04-24T21:24:47.286Z,13.70
2023-04-24T21:27:15.236Z,13.68
2023-04-24T21:29:43.201Z,13.70
2023-04-24T21:32:11.842Z,13.67
2023-04-24T21:34:40.051Z,13.68
2023-04-24T21:37:07.977Z,13.63
2023-04-24T21:39:36.317Z,13.56
2023-04-24T21:42:04.584Z,13.51
2023-04-24T21:44:32.800Z,13.46
2023-04-24T21:47:01.228Z,13.40
2023-04-24T21:49:29.259Z,13.36
2023-04-24T21:51:57.261Z,13.35
2023-04-24T21:54:25.478Z,13.26
2023-04-24T21:56:53.721Z,13.26
2023-04-24T21:59:21.896Z,13.18
2023-04-24T22:01:49.904Z,13.16
2023-04-24T22:04:19.140Z,13.11
2023-04-24T22:06:47.309Z,13.09
2023-04-24T22:09:15.872Z,13.06
2023-04-24T22:11:44.134Z,13.12
2023-04-24T22:14:12.247Z,13.12
2023-04-24T22:16:43.461Z,13.13
2023-04-24T22:19:12.264Z,13.02
2023-04-24T22:21:41.941Z,12.96
2023-04-24T22:24:10.291Z,12.99
2023-04-24T22:26:38.465Z,12.93
2023-04-24T22:29:06.796Z,12.96
2023-04-24T22:31:35.398Z,12.93
2023-04-24T22:34:03.632Z,12.90
2023-04-24T22:36:32.157Z,12.86
2023-04-24T22:39:00.778Z,12.80
2023-04-24T22:41:28.783Z,12.73
2023-04-24T22:43:57.324Z,12.61
2023-04-24T22:46:25.422Z,12.51
2023-04-24T22:48:53.636Z,12.40
2023-04-24T22:51:21.696Z,12.38
2023-04-24T22:53:50.143Z,12.35
2023-04-24T22:56:18.500Z,12.24
2023-04-24T22:58:46.939Z,12.18
2023-04-24T23:01:15.134Z,12.13
2023-04-24T23:03:43.699Z,12.06
2023-04-24T23:06:12.020Z,12.05
2023-04-24T23:08:41.455Z,12.03
2023-04-24T23:11:11.466Z,11.96
2023-04-24T23:13:40.812Z,11.92
2023-04-24T23:16:09.066Z,11.83
2023-04-24T23:18:37.055Z,11.69
2023-04-24T23:21:05.462Z,11.58
2023-04-24T23:23:33.871Z,11.46
2023-04-24T23:26:02.107Z,11.29
2023-04-24T23:28:29.993Z,11.18
2023-04-24T23:30:58.269Z,11.10
2023-04-24T23:33:26.172Z,11.15
2023-04-24T23:35:54.629Z,11.10
2023-04-24T23:38:22.794Z,11.06
2023-04-24T23:40:52.132Z,10.94
2023-04-24T23:43:20.106Z,10.90
2023-04-24T23:45:48.158Z,10.87
2023-04-24T23:48:16.948Z,10.73
2023-04-24T23:50:46.043Z,10.67
2023-04-24T23:53:14.483Z,10.70
2023-04-24T23:55:42.444Z,10.71
2023-04-24T23:58:11.117Z,10.66
